Victor, ID

12:26 AM MDT on June 28, 2017 (GMT -0600)
410 E 9500 S | | Change Station
Active Advisory: Flood Warning

Elev 6200 ft 43.59 °N, 111.09 °W | Updated 37 seconds ago

Clear
Clear
45.5 °F
Feels Like 46 °F
N
0.0
Wind Variable Wind from SSE
Gusts 0.0 mph

Today
High -- | Low -- °F
--% Chance of Precip.
Yesterday
High -- | Low -- °F
Precip. -- in
Pressure 29.94 in
Visibility 10.0 miles
Clouds Clear
Windchill 46 °F
Dew Point 45 °F
Humidity 97%
Rainfall 0.00 in
Snow Depth Not available.
5:45 AM 9:09 PM
Waxing Crescent, 22% visible
METAR KDIJ 280556Z AUTO 27005KT 10SM CLR 10/07 A3005 RMK AO2 SLP139 60000 T01000072 10189 20100 53007
Pressure 29.94 in
Visibility 10.0 miles
Clouds Clear
Windchill 46 °F
Dew Point 45 °F
Humidity 97%
Rainfall 0.00 in
Snow Depth Not available.
5:45 AM 9:09 PM
Waxing Crescent, 22% visible
METAR KDIJ 280556Z AUTO 27005KT 10SM CLR 10/07 A3005 RMK AO2 SLP139 60000 T01000072 10189 20100 53007

Get Your Daily Forecast Email!

Thanks for signing up!

Be on the lookout for a verification email in your inbox.

You'll start receiving severe weather alerts in your inbox..

×

10-Day Weather Forecast

Almanac

Astronomy

Jun. 28, 2017 Rise Set
Actual Time
Civil Twilight
Nautical Twilight
Astronomical Twilight
Moon
Length of Visible Light
Length of Day
Tomorrow will be .
, % of the Moon is Illuminated

Today's Extremes

State Highs State Lows

Community

WunderPhotos

Category 6

Welcome to Category 6. This is the collective home for Weather Underground's featured writeups by Dr. Jeff Masters (right), Bob Henson (left), Chris Burt, and other regular contributors.

Nearby

Air Quality

  Air Quality AQ Index Pollutant
Not available.

Snow Depth

Station Depth Elevation

Earthquake Activity

City Distance Mag. Time & Date
Minimum magnitude displayed is 2.5.

Coastal Water Temperatures

Place Temperature

Stations

Nearby Weather Stations

Station Location Temp. Windchill Dew Point Humidity Wind Precip. Elev Updated Type
                   

Watches & Warnings

Flood Warning
Issued: 12:52 PM MDT Jun. 27, 2017 – National Weather Service

The Flood Warning continues for
the Teton river near Driggs.
* At 12:30 PM Tuesday the stage was 4.1 feet.
* Flood stage is 4.2 feet.
* Minor flooding is forecast.
* Impact... at 4.2 feet... lowland flooding occurs along the river in
the Teton river bottoms from Bates bridge sportsman's access
down-river to Idaho Highway 33 and further down-river to 1000
north. Some river access boat ramps will be under water. Water may
cover a portion of 600 south or north Cedron Road.


                       Fld observed forecast 6 am
location stg stg day time Wed Thu Fri

Teton river
Teton river near dri 4.2 4.1 Tue 12 PM 4.2 4.2 4.0



Lat... Lon 4389 11136 4393 11115 4362 11107 4360 11121